• Join FlightAware (Why Join?)
  • Login
  • US Flag 
Rudolph Flight #1: Arrived! 
04:47PM EST


 

Airport Tracker/Info


-or-


 

Live Flight TrackerFlight Track Log ✈ N6036Y ✈ 07-Mar-2014 ✈ KFXE - KEVB

Flight Track Log - Related Links

Times and Time Zones

All times are in EST time to prevent confusion due to time zone crossing. See the N6036Y flight status page for this flight to view local times or setup timezone preferences in your user account.

Time Position Orientation Groundspeed Altitude Reporting Facility
EST Latitude Longitude Course Direction KTS MPH feet Rate Location/Type
10:28PM 26.1931 -80.1817 308° West 69 79 300  Level Miami Center
10:29PM 26.2031 -80.1958 308° West 65 75 1,200 780 Climbing Miami Center
10:30PM 26.2194 -80.2100 322° Northwest 70 81 2,000 720 Climbing Miami Center
10:31PM 26.2361 -80.2175 338° Northwest 74 85 2,700 180 Climbing Miami Center
10:55PM 26.8372 -80.3161 338° Northwest 100 115 7,000 120 Climbing Miami Center
10:56PM 26.9117 -80.1698 343° North  Level FlightAware Approximate
10:56PM 26.8644 -80.3217 350° North 100 115 7,000  Level Miami Center
10:57PM 26.9406 -80.1800 342° North  Level FlightAware Approximate
10:57PM 26.8933 -80.3272 350° North 100 115 7,000  Level Miami Center
10:58PM 26.9690 -80.1920 338° Northwest  Level FlightAware Approximate
10:58PM 26.9203 -80.3350 346° North 95 109 7,000  Level Miami Center
10:59PM 26.9972 -80.2048 338° Northwest  Level FlightAware Approximate
10:59PM 26.9475 -80.3403 350° North 95 109 7,000  Level Miami Center
11:00PM 27.0253 -80.2175 338° Northwest  Level FlightAware Approximate
11:00PM 26.9703 -80.3433 353° North 95 109 7,000  Level Miami Center
11:01PM 26.9953 -80.3489 349° North 95 109 7,000  Level Miami Center
11:02PM 27.0222 -80.3542 350° North 108 124 7,000  Level Miami Center
11:03PM 27.0472 -80.3597 349° North 101 116 7,000  Level Miami Center
11:04PM 27.0700 -80.3650 348° North 96 110 7,000  Level Miami Center
11:05PM 27.0969 -80.3706 350° North 96 110 7,000  Level Miami Center
11:06PM 27.1261 -80.3761 350° North 91 105 7,000  Level Miami Center
11:07PM 27.1511 -80.3839 345° North 86 99 7,000  Level Miami Center
11:08PM 27.1758 -80.3869 354° North 86 99 7,000  Level Miami Center
11:09PM 27.2008 -80.3925 349° North 86 99 7,000  Level Miami Center
11:10PM 27.2258 -80.3978 349° North 86 99 7,000  Level Miami Center
11:11PM 27.2528 -80.4033 350° North 86 99 7,000  Level Miami Center
11:13PM 27.2797 -80.4089 350° North 86 99 7,000  Level Miami Center
11:14PM 27.3047 -80.4142 349° North 86 99 7,000  Level Miami Center
11:15PM 27.3319 -80.4175 354° North 86 99 7,000  Level Miami Center
11:16PM 27.3567 -80.4228 349° North 86 99 7,000  Level Miami Center
11:17PM 27.3839 -80.4261 354° North 86 99 7,100  Climbing Miami Center
11:18PM 27.4067 -80.4314 348° North 86 99 7,000 -60 Descending Miami Center
11:19PM 27.4317 -80.4369 349° North 86 99 7,000  Level Miami Center
11:20PM 27.4647 -80.4472 345° North 86 99 7,000  Level Miami Center
11:21PM 27.4917 -80.4506 354° North 86 99 7,000  Level Miami Center
11:22PM 27.5208 -80.4561 350° North 86 99 7,000  Level Miami Center
11:23PM 27.5458 -80.4639 345° North 86 99 7,000  Level Miami Center
11:24PM 27.5706 -80.4692 349° North 86 99 7,000  Level Miami Center
11:25PM 27.5914 -80.4722 353° North 86 99 7,000  Level Miami Center
11:26PM 27.6183 -80.4778 350° North 86 99 7,000  Level Miami Center
11:27PM 27.6456 -80.4833 350° North 86 99 7,000  Level Miami Center
11:28PM 27.6725 -80.4914 345° North 86 99 7,000  Level Miami Center
11:29PM 27.7036 -80.4992 348° North 86 99 7,000  Level Miami Center
11:30PM 27.7283 -80.5094 340° North 86 99 7,000  Level Miami Center
11:31PM 27.7511 -80.5172 343° North 86 99 7,000  Level Miami Center
11:32PM 27.7739 -80.5225 348° North 86 99 7,000  Level Miami Center
11:33PM 27.7967 -80.5328 338° Northwest 86 99 7,000  Level Miami Center
11:34PM 27.8214 -80.5406 344° North 86 99 7,000  Level Miami Center
11:35PM 27.8483 -80.5486 345° North 91 105 7,000  Level Miami Center
11:36PM 27.8689 -80.5561 342° North 91 105 7,000  Level Miami Center
11:37PM 27.8917 -80.5642 343° North 91 105 7,000  Level Miami Center
11:39PM 27.9333 -80.5833 338° Northwest 86 99 7,000  Level Orlando TRACON
11:40PM 27.9667 -80.5833 360° North 87 100 7,000  Level Orlando TRACON
11:41PM 27.9833 -80.6000 319° Northwest 87 100 7,000  Level Orlando TRACON
11:42PM 28.0167 -80.6000 360° North 89 102 7,000  Level Orlando TRACON
11:43PM 28.0333 -80.6167 319° Northwest 89 102 7,000  Level Orlando TRACON
11:44PM 28.0667 -80.6167 360° North 87 100 7,000  Level Orlando TRACON
11:45PM 28.0833 -80.6333 319° Northwest 86 99 7,000  Level Orlando TRACON
11:46PM 28.1000 -80.6333 360° North 86 99 7,000  Level Orlando TRACON
11:47PM 28.1333 -80.6500 336° Northwest 86 99 7,000  Level Orlando TRACON
11:48PM 28.1500 -80.6500 360° North 87 100 7,000  Level Orlando TRACON
11:49PM 28.1667 -80.6667 319° Northwest 88 101 7,000  Level Orlando TRACON
11:50PM 28.2000 -80.6667 360° North 87 100 7,000  Level Orlando TRACON
11:51PM 28.2167 -80.6833 319° Northwest 87 100 7,000  Level Orlando TRACON
11:52PM 28.2500 -80.6833 360° North 85 98 7,000  Level Orlando TRACON
11:53PM 28.2667 -80.7000 319° Northwest 86 99 7,000  Level Orlando TRACON
11:54PM 28.2833 -80.7000 360° North 85 98 7,000  Level Orlando TRACON
11:55PM 28.3167 -80.7167 336° Northwest 86 99 7,000 -60 Level Orlando TRACON
11:56PM 28.3333 -80.7167 360° North 88 101 6,900 -300 Descending Orlando TRACON
11:57PM 28.3500 -80.7333 319° Northwest 87 100 6,400 -540 Descending Orlando TRACON
11:58PM 28.3833 -80.7500 336° Northwest 93 107 5,800 -600 Descending Orlando TRACON
11:59PM 28.4000 -80.7500 360° North 91 105 5,200 -420 Descending Orlando TRACON
12:00AM 28.4333 -80.7667 336° Northwest 87 100 5,000 -180 Descending Orlando TRACON
12:02AM 28.4500 -80.7667 360° North 88 101 4,900  Descending Orlando TRACON
12:02AM 28.4667 -80.7833 319° Northwest 83 96 5,000  Climbing Orlando TRACON
12:03AM 28.5000 -80.7833 360° North 82 94 4,900 -60 Descending Orlando TRACON
12:04AM 28.5167 -80.8000 319° Northwest 86 99 4,900  Level Orlando TRACON
12:05AM 28.5333 -80.8000 360° North 83 96 5,000  Climbing Orlando TRACON
12:06AM 28.5667 -80.8167 336° Northwest 82 94 5,000  Level Orlando TRACON
12:07AM 28.5833 -80.8167 360° North 84 97 5,000  Level Orlando TRACON
12:08AM 28.6000 -80.8333 319° Northwest 86 99 5,000  Level Orlando TRACON
12:09AM 28.6333 -80.8333 360° North 83 96 5,000  Level Orlando TRACON
12:10AM 28.6500 -80.8500 319° Northwest 85 98 5,000 -60 Level Orlando TRACON
12:11AM 28.6667 -80.8500 360° North 82 94 4,900  Descending Orlando TRACON
12:12AM 28.6833 -80.8667 319° Northwest 79 91 5,000  Climbing Orlando TRACON
12:13AM 28.7167 -80.8833 336° Northwest 85 98 5,000  Level Orlando TRACON
12:14AM 28.7333 -80.8833 360° North 85 98 5,000  Level Orlando TRACON
12:17AM 28.7856 -80.9075 338° Northwest 86 99 5,100  Climbing Jacksonville Center
12:18AM 28.8067 -80.9164 340° North 86 99 5,100  Level Jacksonville Center
12:19AM 28.8297 -80.9256 341° North 86 99 5,100  Level Jacksonville Center
12:20AM 28.8550 -80.9344 343° North 86 99 5,100  Level Jacksonville Center
12:21AM 28.8781 -80.9411 346° North 84 97 5,100 -120 Level Jacksonville Center
12:22AM 28.8969 -80.9528 332° Northwest 83 96 4,900 -420 Descending Jacksonville Center
12:23AM 28.9181 -80.9617 340° North 82 94 4,400 -600 Descending Jacksonville Center
12:24AM 28.9411 -80.9708 341° North 83 96 3,800 -660 Descending Jacksonville Center
12:25AM 28.9642 -80.9775 346° North 87 100 3,100 -660 Descending Jacksonville Center
12:26AM 28.9850 -80.9842 344° North 88 101 2,500 -600 Descending Jacksonville Center
12:27AM 28.9869 -80.9581 85° East 116 133 2,000 -660 Descending Jacksonville Center
12:28AM 28.9842 -80.9297 96° East 105 121 1,200 -540 Descending Jacksonville Center
12:29AM 29.0050 -80.9103 39° Northeast 85 98 1,000 -180 Descending Jacksonville Center
12:30AM 29.0256 -80.8978 28° Northeast 82 94 900 -120 Descending Jacksonville Center
12:31AM 29.0425 -80.9094 329° Northwest 76 87 800 -300 Descending Jacksonville Center
12:32AM 29.0469 -80.9283 285° West 64 74 400 -420 Descending Jacksonville Center
12:34AM 29.0557 -80.9489 305° West  Level Estimated
12:41AM 29.0557 -80.9489 41° Northeast  Level Estimated
12:42AM 29.0557 -80.9489 41° Northeast  Level Estimated